sensor_id;sensor_type;location;lat;lon;timestamp;P1;P2;P0
72031;PMS5003;49185;42.320;23.198;2024-03-08T00:01:07;2744.00;2744.00;2744.00
72031;PMS5003;49185;42.320;23.198;2024-03-08T00:03:52;2747.50;2747.50;2747.50
72031;PMS5003;49185;42.320;23.198;2024-03-08T00:06:38;2760.50;2760.50;2760.50
72031;PMS5003;49185;42.320;23.198;2024-03-08T00:09:23;2740.50;2740.50;2740.50
72031;PMS5003;49185;42.320;23.198;2024-03-08T00:12:09;2746.00;2746.00;2746.00
72031;PMS5003;49185;42.320;23.198;2024-03-08T00:14:55;2760.50;2760.50;2760.50
72031;PMS5003;49185;42.320;23.198;2024-03-08T00:17:41;2764.00;2764.00;2764.00
72031;PMS5003;49185;42.320;23.198;2024-03-08T00:20:27;2764.00;2764.00;2764.00
72031;PMS5003;49185;42.320;23.198;2024-03-08T00:23:13;2764.00;2764.00;2764.00
72031;PMS5003;49185;42.320;23.198;2024-03-08T00:25:58;2770.00;2770.00;2770.00
72031;PMS5003;49185;42.320;23.198;2024-03-08T00:28:44;2768.00;2768.00;2768.00
72031;PMS5003;49185;42.320;23.198;2024-03-08T00:31:30;2771.50;2771.50;2771.50
72031;PMS5003;49185;42.320;23.198;2024-03-08T00:34:15;2760.50;2760.50;2760.50
72031;PMS5003;49185;42.320;23.198;2024-03-08T00:37:01;2770.00;2770.00;2770.00
72031;PMS5003;49185;42.320;23.198;2024-03-08T00:39:47;2759.00;2759.00;2759.00
72031;PMS5003;49185;42.320;23.198;2024-03-08T00:42:33;2755.00;2755.00;2755.00
72031;PMS5003;49185;42.320;23.198;2024-03-08T00:45:19;2753.00;2753.00;2753.00
72031;PMS5003;49185;42.320;23.198;2024-03-08T00:48:05;2764.00;2764.00;2764.00
72031;PMS5003;49185;42.320;23.198;2024-03-08T00:50:50;2746.00;2746.00;2746.00
72031;PMS5003;49185;42.320;23.198;2024-03-08T00:53:36;2760.50;2760.50;2760.50
72031;PMS5003;49185;42.320;23.198;2024-03-08T00:56:22;2759.00;2759.00;2759.00
72031;PMS5003;49185;42.320;23.198;2024-03-08T00:59:07;2738.50;2738.50;2738.50
72031;PMS5003;49185;42.320;23.198;2024-03-08T01:01:53;2731.50;2731.50;2731.50
72031;PMS5003;49185;42.320;23.198;2024-03-08T01:04:39;2720.50;2720.50;2720.50
72031;PMS5003;49185;42.320;23.198;2024-03-08T01:07:24;2720.50;2720.50;2720.50
72031;PMS5003;49185;42.320;23.198;2024-03-08T01:10:10;2738.50;2738.50;2738.50
72031;PMS5003;49185;42.320;23.198;2024-03-08T01:12:56;2738.50;2738.50;2738.50
72031;PMS5003;49185;42.320;23.198;2024-03-08T01:15:41;2720.50;2720.50;2720.50
72031;PMS5003;49185;42.320;23.198;2024-03-08T01:18:27;2735.50;2735.50;2735.50
72031;PMS5003;49185;42.320;23.198;2024-03-08T01:21:13;2731.50;2731.50;2731.50
72031;PMS5003;49185;42.320;23.198;2024-03-08T01:23:58;2731.50;2731.50;2731.50
72031;PMS5003;49185;42.320;23.198;2024-03-08T01:26:45;2729.50;2729.50;2729.50
72031;PMS5003;49185;42.320;23.198;2024-03-08T01:29:31;2710.50;2710.50;2710.50
72031;PMS5003;49185;42.320;23.198;2024-03-08T01:32:16;2713.50;2713.50;2713.50
72031;PMS5003;49185;42.320;23.198;2024-03-08T01:35:02;2717.50;2717.50;2717.50
72031;PMS5003;49185;42.320;23.198;2024-03-08T01:37:48;2717.50;2717.50;2717.50
72031;PMS5003;49185;42.320;23.198;2024-03-08T01:40:33;2717.50;2717.50;2717.50
72031;PMS5003;49185;42.320;23.198;2024-03-08T01:43:24;2701.50;2701.50;2701.50
72031;PMS5003;49185;42.320;23.198;2024-03-08T01:46:12;2713.50;2713.50;2713.50
72031;PMS5003;49185;42.320;23.198;2024-03-08T01:49:00;2713.50;2713.50;2713.50
72031;PMS5003;49185;42.320;23.198;2024-03-08T01:51:46;2712.00;2712.00;2712.00
72031;PMS5003;49185;42.320;23.198;2024-03-08T01:54:34;2696.00;2696.00;2696.00
72031;PMS5003;49185;42.320;23.198;2024-03-08T01:57:21;2704.50;2704.50;2704.50
72031;PMS5003;49185;42.320;23.198;2024-03-08T02:00:07;2690.50;2690.50;2690.50
72031;PMS5003;49185;42.320;23.198;2024-03-08T02:02:53;2699.50;2699.50;2699.50
72031;PMS5003;49185;42.320;23.198;2024-03-08T02:05:40;2686.00;2686.00;2686.00
72031;PMS5003;49185;42.320;23.198;2024-03-08T02:08:26;2694.50;2694.50;2694.50
72031;PMS5003;49185;42.320;23.198;2024-03-08T02:11:12;2684.00;2684.00;2684.00
72031;PMS5003;49185;42.320;23.198;2024-03-08T02:13:58;2679.00;2679.00;2679.00
72031;PMS5003;49185;42.320;23.198;2024-03-08T02:16:44;2687.50;2687.50;2687.50
72031;PMS5003;49185;42.320;23.198;2024-03-08T02:19:30;2686.00;2686.00;2686.00
72031;PMS5003;49185;42.320;23.198;2024-03-08T02:22:15;2686.00;2686.00;2686.00
72031;PMS5003;49185;42.320;23.198;2024-03-08T02:25:02;2680.50;2680.50;2680.50
72031;PMS5003;49185;42.320;23.198;2024-03-08T02:27:48;2668.50;2668.50;2668.50
72031;PMS5003;49185;42.320;23.198;2024-03-08T02:30:33;2680.50;2680.50;2680.50
72031;PMS5003;49185;42.320;23.198;2024-03-08T02:33:19;2668.50;2668.50;2668.50
72031;PMS5003;49185;42.320;23.198;2024-03-08T02:36:05;2679.00;2679.00;2679.00
72031;PMS5003;49185;42.320;23.198;2024-03-08T02:38:51;2667.00;2667.00;2667.00
72031;PMS5003;49185;42.320;23.198;2024-03-08T02:41:37;2675.00;2675.00;2675.00
72031;PMS5003;49185;42.320;23.198;2024-03-08T02:44:22;2660.00;2660.00;2660.00
72031;PMS5003;49185;42.320;23.198;2024-03-08T02:47:08;2658.00;2658.00;2658.00
72031;PMS5003;49185;42.320;23.198;2024-03-08T02:49:53;2655.00;2655.00;2655.00
72031;PMS5003;49185;42.320;23.198;2024-03-08T02:52:39;2651.50;2651.50;2651.50
72031;PMS5003;49185;42.320;23.198;2024-03-08T02:55:25;2662.00;2662.00;2662.00
72031;PMS5003;49185;42.320;23.198;2024-03-08T02:58:10;2648.00;2648.00;2648.00
72031;PMS5003;49185;42.320;23.198;2024-03-08T03:00:56;2662.00;2662.00;2662.00
72031;PMS5003;49185;42.320;23.198;2024-03-08T03:03:42;2648.00;2648.00;2648.00
72031;PMS5003;49185;42.320;23.198;2024-03-08T03:06:27;2648.00;2648.00;2648.00
72031;PMS5003;49185;42.320;23.198;2024-03-08T03:09:13;2650.00;2650.00;2650.00
72031;PMS5003;49185;42.320;23.198;2024-03-08T03:11:59;2660.00;2660.00;2660.00
72031;PMS5003;49185;42.320;23.198;2024-03-08T03:14:44;2651.50;2651.50;2651.50
72031;PMS5003;49185;42.320;23.198;2024-03-08T03:17:30;2648.00;2648.00;2648.00
72031;PMS5003;49185;42.320;23.198;2024-03-08T03:20:16;2650.00;2650.00;2650.00
72031;PMS5003;49185;42.320;23.198;2024-03-08T03:23:02;2650.00;2650.00;2650.00
72031;PMS5003;49185;42.320;23.198;2024-03-08T03:25:48;2663.50;2663.50;2663.50
72031;PMS5003;49185;42.320;23.198;2024-03-08T03:28:34;2655.00;2655.00;2655.00
72031;PMS5003;49185;42.320;23.198;2024-03-08T03:31:19;2668.50;2668.50;2668.50
72031;PMS5003;49185;42.320;23.198;2024-03-08T03:34:05;2660.00;2660.00;2660.00
72031;PMS5003;49185;42.320;23.198;2024-03-08T03:36:51;2668.50;2668.50;2668.50
72031;PMS5003;49185;42.320;23.198;2024-03-08T03:39:36;2663.50;2663.50;2663.50
72031;PMS5003;49185;42.320;23.198;2024-03-08T03:42:22;2662.00;2662.00;2662.00
72031;PMS5003;49185;42.320;23.198;2024-03-08T03:45:08;2675.00;2675.00;2675.00
72031;PMS5003;49185;42.320;23.198;2024-03-08T03:47:54;2677.00;2677.00;2677.00
72031;PMS5003;49185;42.320;23.198;2024-03-08T03:50:40;2670.00;2670.00;2670.00
72031;PMS5003;49185;42.320;23.198;2024-03-08T03:53:25;2668.50;2668.50;2668.50
72031;PMS5003;49185;42.320;23.198;2024-03-08T03:56:11;2684.00;2684.00;2684.00
72031;PMS5003;49185;42.320;23.198;2024-03-08T03:58:57;2672.00;2672.00;2672.00
72031;PMS5003;49185;42.320;23.198;2024-03-08T04:01:42;2670.00;2670.00;2670.00
72031;PMS5003;49185;42.320;23.198;2024-03-08T04:04:28;2670.00;2670.00;2670.00
72031;PMS5003;49185;42.320;23.198;2024-03-08T04:07:13;2662.00;2662.00;2662.00
72031;PMS5003;49185;42.320;23.198;2024-03-08T04:10:00;2682.00;2682.00;2682.00
72031;PMS5003;49185;42.320;23.198;2024-03-08T04:12:46;2680.50;2680.50;2680.50
72031;PMS5003;49185;42.320;23.198;2024-03-08T04:15:32;2672.00;2672.00;2672.00
72031;PMS5003;49185;42.320;23.198;2024-03-08T04:18:17;2682.00;2682.00;2682.00
72031;PMS5003;49185;42.320;23.198;2024-03-08T04:21:06;2665.00;2665.00;2665.00
72031;PMS5003;49185;42.320;23.198;2024-03-08T04:23:52;2668.50;2668.50;2668.50
72031;PMS5003;49185;42.320;23.198;2024-03-08T04:26:39;2665.00;2665.00;2665.00
72031;PMS5003;49185;42.320;23.198;2024-03-08T04:29:25;2668.50;2668.50;2668.50
72031;PMS5003;49185;42.320;23.198;2024-03-08T04:32:11;2672.00;2672.00;2672.00
72031;PMS5003;49185;42.320;23.198;2024-03-08T04:34:56;2673.50;2673.50;2673.50
72031;PMS5003;49185;42.320;23.198;2024-03-08T04:37:42;2675.00;2675.00;2675.00
72031;PMS5003;49185;42.320;23.198;2024-03-08T04:40:28;2692.50;2692.50;2692.50
72031;PMS5003;49185;42.320;23.198;2024-03-08T04:43:13;2679.00;2679.00;2679.00
72031;PMS5003;49185;42.320;23.198;2024-03-08T04:45:59;2694.50;2694.50;2694.50
72031;PMS5003;49185;42.320;23.198;2024-03-08T04:48:45;2682.00;2682.00;2682.00
72031;PMS5003;49185;42.320;23.198;2024-03-08T04:51:30;2694.50;2694.50;2694.50
72031;PMS5003;49185;42.320;23.198;2024-03-08T04:54:16;2696.00;2696.00;2696.00
72031;PMS5003;49185;42.320;23.198;2024-03-08T04:57:02;2686.00;2686.00;2686.00
72031;PMS5003;49185;42.320;23.198;2024-03-08T04:59:47;2686.00;2686.00;2686.00
72031;PMS5003;49185;42.320;23.198;2024-03-08T05:02:33;2690.50;2690.50;2690.50
72031;PMS5003;49185;42.320;23.198;2024-03-08T05:05:19;2710.50;2710.50;2710.50
72031;PMS5003;49185;42.320;23.198;2024-03-08T05:08:04;2710.50;2710.50;2710.50
72031;PMS5003;49185;42.320;23.198;2024-03-08T05:10:50;2701.50;2701.50;2701.50
72031;PMS5003;49185;42.320;23.198;2024-03-08T05:13:36;2713.50;2713.50;2713.50
72031;PMS5003;49185;42.320;23.198;2024-03-08T05:16:22;2703.00;2703.00;2703.00
72031;PMS5003;49185;42.320;23.198;2024-03-08T05:19:07;2729.50;2729.50;2729.50
72031;PMS5003;49185;42.320;23.198;2024-03-08T05:21:53;2727.50;2727.50;2727.50
72031;PMS5003;49185;42.320;23.198;2024-03-08T05:24:39;2731.50;2731.50;2731.50
72031;PMS5003;49185;42.320;23.198;2024-03-08T05:27:24;2738.50;2738.50;2738.50
72031;PMS5003;49185;42.320;23.198;2024-03-08T05:30:10;2738.50;2738.50;2738.50
72031;PMS5003;49185;42.320;23.198;2024-03-08T05:32:56;2727.50;2727.50;2727.50
72031;PMS5003;49185;42.320;23.198;2024-03-08T05:35:41;2722.50;2722.50;2722.50
72031;PMS5003;49185;42.320;23.198;2024-03-08T05:38:27;2751.50;2751.50;2751.50
72031;PMS5003;49185;42.320;23.198;2024-03-08T05:41:13;2742.00;2742.00;2742.00
72031;PMS5003;49185;42.320;23.198;2024-03-08T05:43:59;2738.50;2738.50;2738.50
72031;PMS5003;49185;42.320;23.198;2024-03-08T05:46:44;2748.00;2748.00;2748.00
72031;PMS5003;49185;42.320;23.198;2024-03-08T05:49:30;2733.50;2733.50;2733.50
72031;PMS5003;49185;42.320;23.198;2024-03-08T05:52:16;2749.50;2749.50;2749.50
72031;PMS5003;49185;42.320;23.198;2024-03-08T05:55:01;2737.00;2737.00;2737.00
72031;PMS5003;49185;42.320;23.198;2024-03-08T05:57:47;2737.00;2737.00;2737.00
72031;PMS5003;49185;42.320;23.198;2024-03-08T06:00:33;2749.50;2749.50;2749.50
72031;PMS5003;49185;42.320;23.198;2024-03-08T06:03:19;2758.50;2758.50;2758.50
72031;PMS5003;49185;42.320;23.198;2024-03-08T06:06:05;2768.00;2768.00;2768.00
72031;PMS5003;49185;42.320;23.198;2024-03-08T06:08:51;2766.00;2766.00;2766.00
72031;PMS5003;49185;42.320;23.198;2024-03-08T06:11:37;2779.00;2779.00;2779.00
72031;PMS5003;49185;42.320;23.198;2024-03-08T06:14:22;2777.00;2777.00;2777.00
72031;PMS5003;49185;42.320;23.198;2024-03-08T06:17:08;2795.50;2795.50;2795.50
72031;PMS5003;49185;42.320;23.198;2024-03-08T06:19:54;2801.50;2801.50;2801.50
72031;PMS5003;49185;42.320;23.198;2024-03-08T06:22:39;2790.00;2790.00;2790.00
72031;PMS5003;49185;42.320;23.198;2024-03-08T06:25:25;2805.00;2805.00;2805.00
72031;PMS5003;49185;42.320;23.198;2024-03-08T06:28:11;2797.50;2797.50;2797.50
72031;PMS5003;49185;42.320;23.198;2024-03-08T06:30:57;2797.50;2797.50;2797.50
72031;PMS5003;49185;42.320;23.198;2024-03-08T06:33:42;2794.00;2794.00;2794.00
72031;PMS5003;49185;42.320;23.198;2024-03-08T06:36:28;2797.50;2797.50;2797.50
72031;PMS5003;49185;42.320;23.198;2024-03-08T06:39:14;2812.50;2812.50;2812.50
72031;PMS5003;49185;42.320;23.198;2024-03-08T06:41:59;2814.50;2814.50;2814.50
72031;PMS5003;49185;42.320;23.198;2024-03-08T06:44:45;2812.50;2812.50;2812.50
72031;PMS5003;49185;42.320;23.198;2024-03-08T06:47:31;2809.00;2809.00;2809.00
72031;PMS5003;49185;42.320;23.198;2024-03-08T06:50:17;2816.50;2816.50;2816.50
72031;PMS5003;49185;42.320;23.198;2024-03-08T06:53:03;2820.50;2820.50;2820.50
72031;PMS5003;49185;42.320;23.198;2024-03-08T06:55:48;2810.50;2810.50;2810.50
72031;PMS5003;49185;42.320;23.198;2024-03-08T06:58:34;2812.50;2812.50;2812.50
72031;PMS5003;49185;42.320;23.198;2024-03-08T07:01:20;2831.50;2831.50;2831.50
72031;PMS5003;49185;42.320;23.198;2024-03-08T07:04:05;2822.50;2822.50;2822.50
72031;PMS5003;49185;42.320;23.198;2024-03-08T07:06:51;2833.50;2833.50;2833.50
72031;PMS5003;49185;42.320;23.198;2024-03-08T07:09:37;2859.00;2859.00;2859.00
72031;PMS5003;49185;42.320;23.198;2024-03-08T07:12:22;2851.50;2851.50;2851.50
72031;PMS5003;49185;42.320;23.198;2024-03-08T07:15:08;2849.50;2849.50;2849.50
72031;PMS5003;49185;42.320;23.198;2024-03-08T07:17:54;2847.50;2847.50;2847.50
72031;PMS5003;49185;42.320;23.198;2024-03-08T07:20:41;2891.00;2891.00;2891.00
72031;PMS5003;49185;42.320;23.198;2024-03-08T07:23:27;2891.00;2891.00;2891.00
72031;PMS5003;49185;42.320;23.198;2024-03-08T07:26:15;2887.00;2887.00;2887.00
72031;PMS5003;49185;42.320;23.198;2024-03-08T07:29:01;2899.00;2899.00;2899.00
72031;PMS5003;49185;42.320;23.198;2024-03-08T07:31:47;2919.00;2919.00;2919.00
72031;PMS5003;49185;42.320;23.198;2024-03-08T07:34:32;2917.00;2917.00;2917.00
72031;PMS5003;49185;42.320;23.198;2024-03-08T07:37:18;2950.50;2950.50;2950.50
72031;PMS5003;49185;42.320;23.198;2024-03-08T07:40:04;2941.50;2941.50;2941.50
72031;PMS5003;49185;42.320;23.198;2024-03-08T07:42:50;2945.50;2945.50;2945.50
72031;PMS5003;49185;42.320;23.198;2024-03-08T07:45:36;2973.00;2973.00;2973.00
72031;PMS5003;49185;42.320;23.198;2024-03-08T07:48:22;2973.00;2973.00;2973.00
72031;PMS5003;49185;42.320;23.198;2024-03-08T07:51:08;2977.50;2977.50;2977.50
72031;PMS5003;49185;42.320;23.198;2024-03-08T07:53:54;2982.00;2982.00;2982.00
72031;PMS5003;49185;42.320;23.198;2024-03-08T07:56:39;2973.00;2973.00;2973.00
72031;PMS5003;49185;42.320;23.198;2024-03-08T07:59:25;2941.50;2941.50;2941.50
72031;PMS5003;49185;42.320;23.198;2024-03-08T08:02:10;2975.50;2975.50;2975.50
72031;PMS5003;49185;42.320;23.198;2024-03-08T08:04:56;2948.00;2948.00;2948.00
72031;PMS5003;49185;42.320;23.198;2024-03-08T08:07:43;2992.50;2992.50;2992.50
72031;PMS5003;49185;42.320;23.198;2024-03-08T08:10:29;2965.00;2965.00;2965.00
72031;PMS5003;49185;42.320;23.198;2024-03-08T08:13:15;3007.50;3007.50;3007.50
72031;PMS5003;49185;42.320;23.198;2024-03-08T08:16:01;3005.50;3005.50;3005.50
72031;PMS5003;49185;42.320;23.198;2024-03-08T08:18:46;3029.50;3029.50;3029.50
72031;PMS5003;49185;42.320;23.198;2024-03-08T08:21:32;3029.50;3029.50;3029.50
72031;PMS5003;49185;42.320;23.198;2024-03-08T08:24:19;3040.50;3040.50;3040.50
72031;PMS5003;49185;42.320;23.198;2024-03-08T08:27:04;3005.50;3005.50;3005.50
72031;PMS5003;49185;42.320;23.198;2024-03-08T08:29:50;2988.00;2988.00;2988.00
72031;PMS5003;49185;42.320;23.198;2024-03-08T08:32:35;2950.50;2950.50;2950.50
72031;PMS5003;49185;42.320;23.198;2024-03-08T08:35:21;3042.50;3042.50;3042.50
72031;PMS5003;49185;42.320;23.198;2024-03-08T08:38:07;3027.50;3027.50;3027.50
72031;PMS5003;49185;42.320;23.198;2024-03-08T08:40:52;3072.00;3072.00;3072.00
72031;PMS5003;49185;42.320;23.198;2024-03-08T08:43:38;3083.00;3083.00;3083.00
72031;PMS5003;49185;42.320;23.198;2024-03-08T08:46:24;3085.50;3085.50;3085.50
72031;PMS5003;49185;42.320;23.198;2024-03-08T08:49:09;3042.50;3042.50;3042.50
72031;PMS5003;49185;42.320;23.198;2024-03-08T08:51:55;3083.00;3083.00;3083.00
72031;PMS5003;49185;42.320;23.198;2024-03-08T08:54:41;3065.00;3065.00;3065.00
72031;PMS5003;49185;42.320;23.198;2024-03-08T08:57:26;3058.50;3058.50;3058.50
72031;PMS5003;49185;42.320;23.198;2024-03-08T09:00:12;3021.00;3021.00;3021.00
72031;PMS5003;49185;42.320;23.198;2024-03-08T09:02:58;3099.50;3099.50;3099.50
72031;PMS5003;49185;42.320;23.198;2024-03-08T09:05:43;3115.50;3115.50;3115.50
72031;PMS5003;49185;42.320;23.198;2024-03-08T09:08:29;3115.50;3115.50;3115.50
72031;PMS5003;49185;42.320;23.198;2024-03-08T09:11:15;3081.00;3081.00;3081.00
72031;PMS5003;49185;42.320;23.198;2024-03-08T09:14:01;3132.00;3132.00;3132.00
72031;PMS5003;49185;42.320;23.198;2024-03-08T09:16:46;3160.50;3160.50;3160.50
72031;PMS5003;49185;42.320;23.198;2024-03-08T09:19:32;3163.00;3163.00;3163.00
72031;PMS5003;49185;42.320;23.198;2024-03-08T09:22:18;3132.00;3132.00;3132.00
72031;PMS5003;49185;42.320;23.198;2024-03-08T09:25:03;3155.50;3155.50;3155.50
72031;PMS5003;49185;42.320;23.198;2024-03-08T09:27:49;3224.00;3224.00;3224.00
72031;PMS5003;49185;42.320;23.198;2024-03-08T09:30:35;3241.50;3241.50;3241.50
72031;PMS5003;49185;42.320;23.198;2024-03-08T09:33:21;3221.50;3221.50;3221.50
72031;PMS5003;49185;42.320;23.198;2024-03-08T09:36:06;3187.00;3187.00;3187.00
72031;PMS5003;49185;42.320;23.198;2024-03-08T09:38:52;3207.00;3207.00;3207.00
72031;PMS5003;49185;42.320;23.198;2024-03-08T09:41:38;3184.50;3184.50;3184.50
72031;PMS5003;49185;42.320;23.198;2024-03-08T09:44:23;3137.00;3137.00;3137.00
72031;PMS5003;49185;42.320;23.198;2024-03-08T09:47:09;3127.00;3127.00;3127.00
72031;PMS5003;49185;42.320;23.198;2024-03-08T09:49:59;3189.50;3189.50;3189.50
72031;PMS5003;49185;42.320;23.198;2024-03-08T09:52:48;3127.50;3127.50;3127.50
72031;PMS5003;49185;42.320;23.198;2024-03-08T09:55:38;2950.50;2950.50;2950.50
72031;PMS5003;49185;42.320;23.198;2024-03-08T09:58:24;2948.00;2948.00;2948.00
72031;PMS5003;49185;42.320;23.198;2024-03-08T10:01:09;2950.50;2950.50;2950.50
72031;PMS5003;49185;42.320;23.198;2024-03-08T10:03:56;2948.00;2948.00;2948.00
72031;PMS5003;49185;42.320;23.198;2024-03-08T10:06:42;2969.00;2969.00;2969.00
72031;PMS5003;49185;42.320;23.198;2024-03-08T10:09:28;2965.00;2965.00;2965.00
72031;PMS5003;49185;42.320;23.198;2024-03-08T10:12:14;2977.50;2977.50;2977.50
72031;PMS5003;49185;42.320;23.198;2024-03-08T10:15:01;2948.00;2948.00;2948.00
72031;PMS5003;49185;42.320;23.198;2024-03-08T10:17:47;2941.50;2941.50;2941.50
72031;PMS5003;49185;42.320;23.198;2024-03-08T10:20:33;2950.50;2950.50;2950.50
72031;PMS5003;49185;42.320;23.198;2024-03-08T10:23:19;2943.50;2943.50;2943.50
72031;PMS5003;49185;42.320;23.198;2024-03-08T10:26:14;3211.50;3211.50;3211.50
72031;PMS5003;49185;42.320;23.198;2024-03-08T10:29:01;3216.50;3216.50;3216.50
72031;PMS5003;49185;42.320;23.198;2024-03-08T10:31:49;3187.00;3187.00;3187.00
72031;PMS5003;49185;42.320;23.198;2024-03-08T10:34:34;3207.00;3207.00;3207.00
72031;PMS5003;49185;42.320;23.198;2024-03-08T10:37:21;2977.50;2977.50;2977.50
72031;PMS5003;49185;42.320;23.198;2024-03-08T10:40:07;2975.50;2975.50;2975.50
72031;PMS5003;49185;42.320;23.198;2024-03-08T10:42:58;2975.50;2975.50;2975.50
72031;PMS5003;49185;42.320;23.198;2024-03-08T10:45:45;2992.50;2992.50;2992.50
72031;PMS5003;49185;42.320;23.198;2024-03-08T10:48:32;2988.00;2988.00;2988.00
72031;PMS5003;49185;42.320;23.198;2024-03-08T10:51:29;2998.50;2998.50;2998.50
72031;PMS5003;49185;42.320;23.198;2024-03-08T10:54:15;3020.50;3020.50;3020.50
72031;PMS5003;49185;42.320;23.198;2024-03-08T10:57:02;3003.00;3003.00;3003.00
72031;PMS5003;49185;42.320;23.198;2024-03-08T10:59:50;3003.50;3003.50;3003.50
72031;PMS5003;49185;42.320;23.198;2024-03-08T11:02:36;3014.00;3014.00;3014.00
72031;PMS5003;49185;42.320;23.198;2024-03-08T11:05:32;2992.50;2992.50;2992.50
72031;PMS5003;49185;42.320;23.198;2024-03-08T11:08:22;2979.50;2979.50;2979.50
72031;PMS5003;49185;42.320;23.198;2024-03-08T11:11:27;2967.00;2967.00;2967.00
72031;PMS5003;49185;42.320;23.198;2024-03-08T11:20:19;2958.50;2958.50;2958.50
72031;PMS5003;49185;42.320;23.198;2024-03-08T11:23:05;3182.00;3182.00;3182.00
72031;PMS5003;49185;42.320;23.198;2024-03-08T11:25:51;3155.50;3155.50;3155.50
72031;PMS5003;49185;42.320;23.198;2024-03-08T11:28:37;3179.50;3179.50;3179.50
72031;PMS5003;49185;42.320;23.198;2024-03-08T11:31:23;3158.00;3158.00;3158.00
72031;PMS5003;49185;42.320;23.198;2024-03-08T11:34:15;3155.50;3155.50;3155.50
72031;PMS5003;49185;42.320;23.198;2024-03-08T11:37:04;3182.00;3182.00;3182.00
72031;PMS5003;49185;42.320;23.198;2024-03-08T11:39:52;3146.50;3146.50;3146.50
72031;PMS5003;49185;42.320;23.198;2024-03-08T11:42:39;3149.00;3149.00;3149.00
72031;PMS5003;49185;42.320;23.198;2024-03-08T11:45:25;3182.00;3182.00;3182.00
72031;PMS5003;49185;42.320;23.198;2024-03-08T11:48:10;3207.00;3207.00;3207.00
72031;PMS5003;49185;42.320;23.198;2024-03-08T11:50:59;3226.50;3226.50;3226.50
72031;PMS5003;49185;42.320;23.198;2024-03-08T11:53:46;3234.00;3234.00;3234.00
72031;PMS5003;49185;42.320;23.198;2024-03-08T11:56:34;3249.50;3249.50;3249.50
72031;PMS5003;49185;42.320;23.198;2024-03-08T11:59:20;3269.50;3269.50;3269.50
72031;PMS5003;49185;42.320;23.198;2024-03-08T12:02:06;3239.00;3239.00;3239.00
72031;PMS5003;49185;42.320;23.198;2024-03-08T12:04:58;3221.50;3221.50;3221.50
72031;PMS5003;49185;42.320;23.198;2024-03-08T12:07:55;3293.00;3293.00;3293.00
72031;PMS5003;49185;42.320;23.198;2024-03-08T12:10:41;3241.50;3241.50;3241.50
72031;PMS5003;49185;42.320;23.198;2024-03-08T12:13:31;3214.00;3214.00;3214.00
72031;PMS5003;49185;42.320;23.198;2024-03-08T12:16:18;3204.00;3204.00;3204.00
72031;PMS5003;49185;42.320;23.198;2024-03-08T12:19:03;3036.00;3036.00;3036.00
72031;PMS5003;49185;42.320;23.198;2024-03-08T12:21:50;3269.50;3269.50;3269.50
72031;PMS5003;49185;42.320;23.198;2024-03-08T12:24:36;3280.50;3280.50;3280.50
72031;PMS5003;49185;42.320;23.198;2024-03-08T12:27:22;3005.50;3005.50;3005.50
72031;PMS5003;49185;42.320;23.198;2024-03-08T12:33:04;3072.00;3072.00;3072.00
72031;PMS5003;49185;42.320;23.198;2024-03-08T12:35:53;2986.00;2986.00;2986.00
72031;PMS5003;49185;42.320;23.198;2024-03-08T12:38:40;3001.00;3001.00;3001.00
72031;PMS5003;49185;42.320;23.198;2024-03-08T12:41:25;3214.00;3214.00;3214.00
72031;PMS5003;49185;42.320;23.198;2024-03-08T12:44:11;3173.00;3173.00;3173.00
72031;PMS5003;49185;42.320;23.198;2024-03-08T12:46:57;3194.50;3194.50;3194.50
72031;PMS5003;49185;42.320;23.198;2024-03-08T12:49:42;3158.00;3158.00;3158.00
72031;PMS5003;49185;42.320;23.198;2024-03-08T12:52:28;3214.00;3214.00;3214.00
72031;PMS5003;49185;42.320;23.198;2024-03-08T12:55:14;3180.00;3180.00;3180.00
72031;PMS5003;49185;42.320;23.198;2024-03-08T12:58:00;3045.00;3045.00;3045.00
72031;PMS5003;49185;42.320;23.198;2024-03-08T13:00:46;2971.50;2971.50;2971.50
72031;PMS5003;49185;42.320;23.198;2024-03-08T13:03:32;2984.00;2984.00;2984.00
72031;PMS5003;49185;42.320;23.198;2024-03-08T13:06:17;2971.00;2971.00;2971.00
72031;PMS5003;49185;42.320;23.198;2024-03-08T13:09:04;2975.50;2975.50;2975.50
72031;PMS5003;49185;42.320;23.198;2024-03-08T13:11:49;3088.00;3088.00;3088.00
72031;PMS5003;49185;42.320;23.198;2024-03-08T13:14:35;2971.00;2971.00;2971.00
72031;PMS5003;49185;42.320;23.198;2024-03-08T13:17:21;2992.50;2992.50;2992.50
72031;PMS5003;49185;42.320;23.198;2024-03-08T13:20:07;2964.50;2964.50;2964.50
72031;PMS5003;49185;42.320;23.198;2024-03-08T13:22:53;2975.50;2975.50;2975.50
72031;PMS5003;49185;42.320;23.198;2024-03-08T13:25:39;2964.50;2964.50;2964.50
72031;PMS5003;49185;42.320;23.198;2024-03-08T13:28:25;2962.50;2962.50;2962.50
72031;PMS5003;49185;42.320;23.198;2024-03-08T13:31:11;3214.00;3214.00;3214.00
72031;PMS5003;49185;42.320;23.198;2024-03-08T13:33:57;3175.50;3175.50;3175.50
72031;PMS5003;49185;42.320;23.198;2024-03-08T13:36:42;3177.50;3177.50;3177.50
72031;PMS5003;49185;42.320;23.198;2024-03-08T13:39:28;3189.50;3189.50;3189.50
72031;PMS5003;49185;42.320;23.198;2024-03-08T13:42:14;3120.50;3120.50;3120.50
72031;PMS5003;49185;42.320;23.198;2024-03-08T13:45:01;2960.50;2960.50;2960.50
72031;PMS5003;49185;42.320;23.198;2024-03-08T13:47:47;2950.50;2950.50;2950.50
72031;PMS5003;49185;42.320;23.198;2024-03-08T13:50:33;3184.50;3184.50;3184.50
72031;PMS5003;49185;42.320;23.198;2024-03-08T13:53:19;3189.50;3189.50;3189.50
72031;PMS5003;49185;42.320;23.198;2024-03-08T13:56:05;3153.00;3153.00;3153.00
72031;PMS5003;49185;42.320;23.198;2024-03-08T13:58:51;3123.00;3123.00;3123.00
72031;PMS5003;49185;42.320;23.198;2024-03-08T14:01:37;3209.00;3209.00;3209.00
72031;PMS5003;49185;42.320;23.198;2024-03-08T14:04:22;3207.00;3207.00;3207.00
72031;PMS5003;49185;42.320;23.198;2024-03-08T14:07:08;3155.50;3155.50;3155.50
72031;PMS5003;49185;42.320;23.198;2024-03-08T14:09:54;2952.00;2952.00;2952.00
72031;PMS5003;49185;42.320;23.198;2024-03-08T14:12:40;3194.50;3194.50;3194.50
72031;PMS5003;49185;42.320;23.198;2024-03-08T14:15:26;3194.50;3194.50;3194.50